createdAt,value
2018-05-31T00:00:36.752Z,5.60
2018-05-31T00:03:02.494Z,5.80
2018-05-31T00:05:28.241Z,5.63
2018-05-31T00:07:53.993Z,5.73
2018-05-31T00:10:19.752Z,5.87
2018-05-31T00:12:45.485Z,5.70
2018-05-31T00:15:11.224Z,6.03
2018-05-31T00:17:36.977Z,6.20
2018-05-31T00:20:02.741Z,6.27
2018-05-31T00:22:28.468Z,6.63
2018-05-31T00:24:54.226Z,6.60
2018-05-31T00:27:19.948Z,6.10
2018-05-31T00:29:45.716Z,6.90
2018-05-31T00:32:11.456Z,6.53
2018-05-31T00:34:37.204Z,7.30
2018-05-31T00:37:02.948Z,6.47
2018-05-31T00:39:28.680Z,7.43
2018-05-31T00:41:54.422Z,7.77
2018-05-31T00:44:20.156Z,7.40
2018-05-31T00:46:45.895Z,7.90
2018-05-31T00:49:11.639Z,7.97
2018-05-31T00:51:37.381Z,8.40
2018-05-31T00:54:03.123Z,7.60
2018-05-31T00:56:28.860Z,7.70
2018-05-31T00:58:54.588Z,7.40
2018-05-31T01:01:20.332Z,7.57
2018-05-31T01:03:46.073Z,7.27
2018-05-31T01:06:11.820Z,7.20
2018-05-31T01:08:37.558Z,7.63
2018-05-31T01:11:04.104Z,7.73
2018-05-31T01:13:29.847Z,7.87
2018-05-31T01:15:55.594Z,7.47
2018-05-31T01:18:21.327Z,7.50
2018-05-31T01:20:47.084Z,7.20
2018-05-31T01:23:12.825Z,7.30
2018-05-31T01:25:38.575Z,7.57
2018-05-31T01:28:04.309Z,7.30
2018-05-31T01:30:30.048Z,7.37
2018-05-31T01:32:55.773Z,8.27
2018-05-31T01:35:21.530Z,7.50
2018-05-31T01:37:47.269Z,7.20
2018-05-31T01:40:13.012Z,7.00
2018-05-31T01:42:38.735Z,7.27
2018-05-31T01:45:04.484Z,6.77
2018-05-31T01:47:30.224Z,7.77
2018-05-31T01:49:55.961Z,7.70
2018-05-31T01:52:21.708Z,7.70
2018-05-31T01:54:47.450Z,7.40
2018-05-31T01:57:13.200Z,6.93
2018-05-31T01:59:38.939Z,8.07
2018-05-31T02:02:04.705Z,7.13
2018-05-31T02:04:30.448Z,7.67
2018-05-31T02:06:56.190Z,7.23
2018-05-31T02:09:21.931Z,7.20
2018-05-31T02:11:47.717Z,7.80
2018-05-31T02:14:13.457Z,7.83
2018-05-31T02:16:39.216Z,7.70
2018-05-31T02:19:04.981Z,7.33
2018-05-31T02:21:30.716Z,7.80
2018-05-31T02:23:56.456Z,7.30
2018-05-31T02:26:22.208Z,7.80
2018-05-31T02:28:47.948Z,7.67
2018-05-31T02:31:13.692Z,7.17
2018-05-31T02:33:39.425Z,7.83
2018-05-31T02:36:05.180Z,7.97
2018-05-31T02:38:30.920Z,7.67
2018-05-31T02:40:56.656Z,6.83
2018-05-31T02:43:22.401Z,7.37
2018-05-31T02:45:48.295Z,7.60
2018-05-31T02:48:14.021Z,8.47
2018-05-31T02:50:39.772Z,7.20
2018-05-31T02:53:06.002Z,7.93
2018-05-31T02:55:33.128Z,7.83
2018-05-31T02:57:58.913Z,8.10
2018-05-31T03:00:24.640Z,7.30
2018-05-31T03:02:50.385Z,7.70
2018-05-31T03:05:16.120Z,7.50
2018-05-31T03:07:41.910Z,7.53
2018-05-31T03:10:07.627Z,8.07
2018-05-31T03:12:33.377Z,7.30
2018-05-31T03:14:59.106Z,7.23
2018-05-31T03:17:24.860Z,7.50
2018-05-31T03:19:50.600Z,7.10
2018-05-31T03:22:16.333Z,7.43
2018-05-31T03:24:42.072Z,7.67
2018-05-31T03:27:07.807Z,7.70
2018-05-31T03:29:33.524Z,8.20
2018-05-31T03:31:59.287Z,8.03
2018-05-31T03:34:25.018Z,8.17
2018-05-31T03:36:50.762Z,7.97
2018-05-31T03:39:16.482Z,8.00
2018-05-31T03:41:42.237Z,7.97
2018-05-31T03:44:07.969Z,8.73
2018-05-31T03:46:33.704Z,8.53
2018-05-31T03:48:59.435Z,8.73
2018-05-31T03:51:25.184Z,8.73
2018-05-31T03:53:50.904Z,9.33
2018-05-31T03:56:16.656Z,9.47
2018-05-31T03:58:42.390Z,8.90
2018-05-31T04:01:08.132Z,8.50
2018-05-31T04:03:33.856Z,9.93
2018-05-31T04:05:59.603Z,9.63
2018-05-31T04:08:25.328Z,9.33
2018-05-31T04:10:51.549Z,9.23
2018-05-31T04:13:17.311Z,9.17
2018-05-31T04:15:43.045Z,9.43
2018-05-31T04:18:08.787Z,9.90
2018-05-31T04:20:34.515Z,9.63
2018-05-31T04:23:00.261Z,10.20
2018-05-31T04:25:25.996Z,10.17
2018-05-31T04:27:51.743Z,9.97
2018-05-31T04:30:17.464Z,9.77
2018-05-31T04:32:43.203Z,9.97
2018-05-31T04:35:08.932Z,9.97
2018-05-31T04:37:34.663Z,9.97
2018-05-31T04:40:00.388Z,10.17
2018-05-31T04:42:26.170Z,10.47
2018-05-31T04:44:51.863Z,10.03
2018-05-31T04:47:17.617Z,9.67
2018-05-31T04:49:43.336Z,10.00
2018-05-31T04:52:09.075Z,10.33
2018-05-31T04:54:34.799Z,9.83
2018-05-31T04:57:01.564Z,9.40
2018-05-31T04:59:27.298Z,10.43
2018-05-31T05:01:53.034Z,9.20
2018-05-31T05:04:18.765Z,10.10
2018-05-31T05:06:44.525Z,9.60
2018-05-31T05:09:10.269Z,9.87
2018-05-31T05:11:35.997Z,9.90
2018-05-31T05:14:01.735Z,9.50
2018-05-31T05:16:27.456Z,9.80
2018-05-31T05:18:53.211Z,9.43
2018-05-31T05:21:18.933Z,9.27
2018-05-31T05:23:44.680Z,9.50
2018-05-31T05:26:10.428Z,9.53
2018-05-31T05:28:36.171Z,9.37
2018-05-31T05:31:01.922Z,9.17
2018-05-31T05:33:27.659Z,9.20
2018-05-31T05:35:53.397Z,9.30
2018-05-31T05:38:19.143Z,9.40
2018-05-31T05:40:44.885Z,9.23
2018-05-31T05:43:10.633Z,8.63
2018-05-31T05:45:36.376Z,8.90
2018-05-31T05:48:02.130Z,9.70
2018-05-31T05:50:27.851Z,9.53
2018-05-31T05:52:53.611Z,9.20
2018-05-31T05:55:19.361Z,8.47
2018-05-31T05:57:45.104Z,8.97
2018-05-31T06:00:10.844Z,9.10
2018-05-31T06:02:36.601Z,8.73
2018-05-31T06:05:02.340Z,8.80
2018-05-31T06:07:28.075Z,8.43
2018-05-31T06:09:53.878Z,8.83
2018-05-31T06:12:19.561Z,9.27
2018-05-31T06:14:45.308Z,9.37
2018-05-31T06:17:11.053Z,8.37
2018-05-31T06:19:36.813Z,8.33
2018-05-31T06:22:02.560Z,9.40
2018-05-31T06:24:28.295Z,9.37
2018-05-31T06:26:54.022Z,9.20
2018-05-31T06:29:19.776Z,9.77
2018-05-31T06:31:45.521Z,9.63
2018-05-31T06:34:11.263Z,9.70
2018-05-31T06:36:37.004Z,9.10
2018-05-31T06:39:02.760Z,9.00
2018-05-31T06:41:28.488Z,9.23
2018-05-31T06:43:54.225Z,9.03
2018-05-31T06:46:19.964Z,8.97
2018-05-31T06:48:45.706Z,8.60
2018-05-31T06:51:11.431Z,9.73
2018-05-31T06:53:37.184Z,9.50
2018-05-31T06:56:02.916Z,9.10
2018-05-31T06:58:28.699Z,9.07
2018-05-31T07:00:54.467Z,9.17
2018-05-31T07:03:20.198Z,8.73
2018-05-31T07:05:45.925Z,9.90
2018-05-31T07:08:11.670Z,10.27
2018-05-31T07:10:37.418Z,8.73
2018-05-31T07:13:03.149Z,8.90
2018-05-31T07:15:28.888Z,9.17
2018-05-31T07:17:54.604Z,8.83
2018-05-31T07:20:20.362Z,9.37
2018-05-31T07:22:46.091Z,9.07
2018-05-31T07:25:11.842Z,8.30
2018-05-31T07:27:37.597Z,8.63
2018-05-31T07:30:03.341Z,8.80
2018-05-31T07:32:29.080Z,8.93
2018-05-31T07:34:54.824Z,8.17
2018-05-31T07:37:20.587Z,9.10
2018-05-31T07:39:46.336Z,8.53
2018-05-31T07:42:12.077Z,9.23
2018-05-31T07:44:37.821Z,9.23
2018-05-31T07:47:03.560Z,9.20
2018-05-31T07:49:29.298Z,7.90
2018-05-31T07:51:55.037Z,8.87
2018-05-31T07:54:20.789Z,8.93
2018-05-31T07:56:46.529Z,9.30
2018-05-31T07:59:12.284Z,10.00
2018-05-31T08:01:38.016Z,9.43
2018-05-31T08:04:03.764Z,10.30
2018-05-31T08:06:29.513Z,9.43
2018-05-31T08:08:55.276Z,9.57
2018-05-31T08:11:21.072Z,11.13
2018-05-31T08:13:46.826Z,9.80
2018-05-31T08:16:12.548Z,9.00
2018-05-31T08:18:38.290Z,10.90
2018-05-31T08:21:04.045Z,10.40
2018-05-31T08:23:29.780Z,11.00
2018-05-31T08:25:55.515Z,11.47
2018-05-31T08:28:21.239Z,11.90
2018-05-31T08:30:46.972Z,12.07
2018-05-31T08:33:12.700Z,10.67
2018-05-31T08:35:38.432Z,10.80
2018-05-31T08:38:10.306Z,10.73
2018-05-31T08:40:36.354Z,11.40
2018-05-31T08:43:02.068Z,12.03
2018-05-31T08:45:27.809Z,10.90
2018-05-31T08:47:53.547Z,10.33
2018-05-31T08:50:19.294Z,10.63
2018-05-31T08:52:45.030Z,10.80
2018-05-31T08:55:10.767Z,9.33
2018-05-31T08:57:36.508Z,9.97
2018-05-31T09:00:02.256Z,8.63
2018-05-31T09:02:27.985Z,9.50
2018-05-31T09:04:53.728Z,9.33
2018-05-31T09:07:19.451Z,9.43
2018-05-31T09:09:45.209Z,9.27
2018-05-31T09:12:10.958Z,8.60
2018-05-31T09:14:36.701Z,8.33
2018-05-31T09:17:02.420Z,8.97
2018-05-31T09:19:28.156Z,9.10
2018-05-31T09:21:53.883Z,9.43
2018-05-31T09:24:19.651Z,9.10
2018-05-31T09:26:45.391Z,10.50
2018-05-31T09:29:11.127Z,10.40
2018-05-31T09:31:36.865Z,8.87
2018-05-31T09:34:02.604Z,8.40
2018-05-31T09:36:28.348Z,7.50
2018-05-31T09:38:54.064Z,9.27
2018-05-31T09:41:19.815Z,9.23
2018-05-31T09:43:45.541Z,9.70
2018-05-31T09:46:11.276Z,9.57
2018-05-31T09:48:37.020Z,8.27
2018-05-31T09:51:02.771Z,7.57
2018-05-31T09:53:28.521Z,7.13
2018-05-31T09:55:54.261Z,9.73
2018-05-31T09:58:19.999Z,7.50
2018-05-31T10:00:45.741Z,7.17
2018-05-31T10:03:11.483Z,7.37
2018-05-31T10:05:37.222Z,7.80
2018-05-31T10:08:02.968Z,7.83
2018-05-31T10:10:28.709Z,6.97
2018-05-31T10:12:54.444Z,7.03
2018-05-31T10:15:20.227Z,6.60
2018-05-31T10:17:45.964Z,6.67
2018-05-31T10:20:11.721Z,6.53
2018-05-31T10:22:37.453Z,6.50
2018-05-31T10:25:03.216Z,7.07
2018-05-31T10:27:28.959Z,6.60
2018-05-31T10:29:54.707Z,7.37
2018-05-31T10:32:20.435Z,7.53
2018-05-31T10:34:46.149Z,6.60
2018-05-31T10:37:11.893Z,7.33
2018-05-31T10:39:37.620Z,7.10
2018-05-31T10:42:03.384Z,6.30
2018-05-31T10:44:29.126Z,6.50
2018-05-31T10:46:54.919Z,5.73
2018-05-31T10:49:20.591Z,5.93
2018-05-31T10:51:46.345Z,5.60
2018-05-31T10:54:12.096Z,6.07
2018-05-31T10:56:37.841Z,5.97
2018-05-31T10:59:03.591Z,5.93
2018-05-31T11:01:29.342Z,5.63
2018-05-31T11:03:55.069Z,5.70
2018-05-31T11:06:20.819Z,5.63
2018-05-31T11:08:46.557Z,4.70
2018-05-31T11:11:12.289Z,5.60
2018-05-31T11:13:38.008Z,5.23
2018-05-31T11:16:03.740Z,4.63
2018-05-31T11:18:29.458Z,4.80
2018-05-31T11:20:55.192Z,4.90
2018-05-31T11:23:20.909Z,4.77
2018-05-31T11:25:46.637Z,4.50
2018-05-31T11:28:12.351Z,4.17
2018-05-31T11:30:38.072Z,5.00
2018-05-31T11:33:03.805Z,5.00
2018-05-31T11:35:29.543Z,4.20
2018-05-31T11:37:55.277Z,4.57
2018-05-31T11:40:21.003Z,4.67
2018-05-31T11:42:46.729Z,4.73
2018-05-31T11:45:12.456Z,4.80
2018-05-31T11:47:38.184Z,4.20
2018-05-31T11:50:03.903Z,4.20
2018-05-31T11:52:29.624Z,4.47
2018-05-31T11:54:55.758Z,4.60
2018-05-31T11:57:21.496Z,4.60
2018-05-31T11:59:47.220Z,4.90
2018-05-31T12:02:12.945Z,5.10
2018-05-31T12:04:45.765Z,4.63
2018-05-31T12:07:11.491Z,4.90
2018-05-31T12:09:37.203Z,4.70
2018-05-31T12:12:02.939Z,4.73
2018-05-31T12:14:28.660Z,5.27
2018-05-31T12:16:54.380Z,5.10
2018-05-31T12:19:20.109Z,4.80
2018-05-31T12:21:45.854Z,5.07
2018-05-31T12:24:11.607Z,5.50
2018-05-31T12:26:37.342Z,5.10
2018-05-31T12:29:03.060Z,5.40
2018-05-31T12:31:28.779Z,5.53
2018-05-31T12:33:54.513Z,5.30
2018-05-31T12:36:20.237Z,5.50
2018-05-31T12:38:45.959Z,5.50
2018-05-31T12:41:11.700Z,5.47
2018-05-31T12:43:37.433Z,5.47
2018-05-31T12:46:03.160Z,5.43
2018-05-31T12:48:28.900Z,5.57
2018-05-31T12:50:54.645Z,5.30
2018-05-31T12:53:20.389Z,5.40
2018-05-31T12:55:46.104Z,5.03
2018-05-31T12:58:11.857Z,5.80
2018-05-31T13:00:37.571Z,5.73
2018-05-31T13:03:03.306Z,5.63
2018-05-31T13:05:29.033Z,5.53
2018-05-31T13:07:54.767Z,5.57
2018-05-31T13:10:20.493Z,5.73
2018-05-31T13:12:46.224Z,5.70
2018-05-31T13:15:11.959Z,5.13
2018-05-31T13:17:37.705Z,5.67
2018-05-31T13:20:03.451Z,5.47
2018-05-31T13:22:29.183Z,5.00
2018-05-31T13:24:54.900Z,5.00
2018-05-31T13:27:20.633Z,5.47
2018-05-31T13:29:46.360Z,4.93
2018-05-31T13:32:12.109Z,5.23
2018-05-31T13:34:37.841Z,4.90
2018-05-31T13:37:03.591Z,5.53
2018-05-31T13:39:29.327Z,5.40
2018-05-31T13:41:55.068Z,6.00
2018-05-31T13:44:20.809Z,4.97
2018-05-31T13:46:46.574Z,5.10
2018-05-31T13:49:12.296Z,5.50
2018-05-31T13:51:38.048Z,5.37
2018-05-31T13:54:03.802Z,5.33
2018-05-31T13:56:29.549Z,5.47
2018-05-31T13:58:55.297Z,5.53
2018-05-31T14:01:21.032Z,5.57
2018-05-31T14:03:46.798Z,5.47
2018-05-31T14:06:12.531Z,5.57
2018-05-31T14:08:38.268Z,5.23
2018-05-31T14:11:04.012Z,5.10
2018-05-31T14:13:29.757Z,5.17
2018-05-31T14:15:55.501Z,5.10
2018-05-31T14:18:21.248Z,5.40
2018-05-31T14:20:46.998Z,5.30
2018-05-31T14:23:12.752Z,5.37
2018-05-31T14:25:38.500Z,5.20
2018-05-31T14:28:04.261Z,5.07
2018-05-31T14:30:29.992Z,4.60
2018-05-31T14:32:55.734Z,5.10
2018-05-31T14:35:21.473Z,5.33
2018-05-31T14:37:47.228Z,5.50
2018-05-31T14:40:12.960Z,5.57
2018-05-31T14:42:38.695Z,5.13
2018-05-31T14:45:04.436Z,5.23
2018-05-31T14:47:30.184Z,4.63
2018-05-31T14:49:55.920Z,5.03
2018-05-31T14:52:21.661Z,5.20
2018-05-31T14:54:47.413Z,5.60
2018-05-31T14:57:13.139Z,5.50
2018-05-31T14:59:38.869Z,5.43
2018-05-31T15:02:04.621Z,5.17
2018-05-31T15:04:30.360Z,4.70
2018-05-31T15:06:56.088Z,4.90
2018-05-31T15:09:21.845Z,4.70
2018-05-31T15:11:47.582Z,5.13
2018-05-31T15:14:13.336Z,4.47
2018-05-31T15:16:39.060Z,5.23
2018-05-31T15:19:04.835Z,4.77
2018-05-31T15:21:30.580Z,4.53
2018-05-31T15:23:56.325Z,5.27
2018-05-31T15:26:22.060Z,5.00
2018-05-31T15:28:47.824Z,5.03
2018-05-31T15:31:13.560Z,4.90
2018-05-31T15:33:39.304Z,5.70
2018-05-31T15:36:05.090Z,4.77
2018-05-31T15:38:30.792Z,4.60
2018-05-31T15:40:56.524Z,5.00
2018-05-31T15:43:22.247Z,4.73
2018-05-31T15:45:47.988Z,4.80
2018-05-31T15:48:13.749Z,4.50
2018-05-31T15:50:39.488Z,4.50
2018-05-31T15:53:05.232Z,4.83
2018-05-31T15:55:30.989Z,4.20
2018-05-31T15:57:56.731Z,4.47
2018-05-31T16:00:22.471Z,4.40
2018-05-31T16:02:48.232Z,4.30
2018-05-31T16:05:13.959Z,4.90
2018-05-31T16:07:39.688Z,4.40
2018-05-31T16:10:05.429Z,4.27
2018-05-31T16:12:31.155Z,4.67
2018-05-31T16:14:56.884Z,4.43
2018-05-31T16:17:22.633Z,4.40
2018-05-31T16:19:48.389Z,4.43
2018-05-31T16:22:14.116Z,4.60
2018-05-31T16:24:39.849Z,4.33
2018-05-31T16:27:05.597Z,4.57
2018-05-31T16:29:31.353Z,4.30
2018-05-31T16:31:57.084Z,4.67
2018-05-31T16:34:22.832Z,4.17
2018-05-31T16:36:48.557Z,3.80
2018-05-31T16:39:14.302Z,4.27
2018-05-31T16:41:40.032Z,4.37
2018-05-31T16:44:05.791Z,4.43
2018-05-31T16:46:31.528Z,4.17
2018-05-31T16:48:57.284Z,4.63
2018-05-31T16:51:23.022Z,4.27
2018-05-31T16:53:48.768Z,3.97
2018-05-31T16:56:14.507Z,4.63
2018-05-31T16:58:40.257Z,4.40
2018-05-31T17:01:06.000Z,4.37
2018-05-31T17:03:31.742Z,4.70
2018-05-31T17:05:57.473Z,4.10
2018-05-31T17:08:23.224Z,3.80
2018-05-31T17:10:48.958Z,4.03
2018-05-31T17:13:14.693Z,4.40
2018-05-31T17:15:40.449Z,4.20
2018-05-31T17:18:06.193Z,4.17
2018-05-31T17:20:31.951Z,4.23
2018-05-31T17:22:57.685Z,3.77
2018-05-31T17:25:23.436Z,3.67
2018-05-31T17:27:49.178Z,3.83
2018-05-31T17:30:14.920Z,3.93
2018-05-31T17:32:40.648Z,4.70
2018-05-31T17:35:06.384Z,3.87
2018-05-31T17:37:32.124Z,4.77
2018-05-31T17:39:57.864Z,4.50
2018-05-31T17:42:23.646Z,4.30
2018-05-31T17:44:49.383Z,3.93
2018-05-31T17:47:15.131Z,4.30
2018-05-31T17:49:40.877Z,3.80
2018-05-31T17:52:06.611Z,4.17
2018-05-31T17:54:32.722Z,4.10
2018-05-31T17:56:58.473Z,3.87
2018-05-31T17:59:24.207Z,3.90
2018-05-31T18:01:49.969Z,4.43
2018-05-31T18:04:15.700Z,4.03
2018-05-31T18:06:41.505Z,4.20
2018-05-31T18:09:07.262Z,4.20
2018-05-31T18:11:33.014Z,3.70
2018-05-31T18:13:58.770Z,3.83
2018-05-31T18:16:24.505Z,4.53
2018-05-31T18:18:50.241Z,4.07
2018-05-31T18:21:15.995Z,4.37
2018-05-31T18:23:41.736Z,4.03
2018-05-31T18:26:07.484Z,3.80
2018-05-31T18:28:33.243Z,3.97
2018-05-31T18:30:58.989Z,3.87
2018-05-31T18:33:24.720Z,4.37
2018-05-31T18:35:50.476Z,4.20
2018-05-31T18:38:16.199Z,4.40
2018-05-31T18:40:41.942Z,3.80
2018-05-31T18:43:07.682Z,3.27
2018-05-31T18:45:33.432Z,3.67
2018-05-31T18:47:59.166Z,3.83
2018-05-31T18:50:24.919Z,3.37
2018-05-31T18:52:50.654Z,4.00
2018-05-31T18:55:16.396Z,3.73
2018-05-31T18:57:42.141Z,4.00
2018-05-31T19:00:07.896Z,3.57
2018-05-31T19:02:33.632Z,4.63
2018-05-31T19:04:59.414Z,4.00
2018-05-31T19:07:25.160Z,4.00
2018-05-31T19:09:50.891Z,3.93
2018-05-31T19:12:16.641Z,3.43
2018-05-31T19:14:42.380Z,3.37
2018-05-31T19:17:08.108Z,3.60
2018-05-31T19:19:39.891Z,3.90
2018-05-31T19:22:05.618Z,4.40
2018-05-31T19:24:37.495Z,3.73
2018-05-31T19:27:03.215Z,4.03
2018-05-31T19:29:28.950Z,4.10
2018-05-31T19:31:54.696Z,4.33
2018-05-31T19:34:20.435Z,4.00
2018-05-31T19:36:52.268Z,4.33
2018-05-31T19:39:17.995Z,4.47
2018-05-31T19:41:43.732Z,4.00
2018-05-31T19:44:15.488Z,4.03
2018-05-31T19:46:41.225Z,4.00
2018-05-31T19:49:06.956Z,3.80
2018-05-31T19:51:38.956Z,3.90
2018-05-31T19:54:04.722Z,4.10
2018-05-31T19:56:30.449Z,4.23
2018-05-31T20:12:21.258Z,4.00
2018-05-31T20:14:46.029Z,4.07
2018-05-31T20:17:11.768Z,3.90
2018-05-31T20:19:37.509Z,3.47
2018-05-31T20:22:03.249Z,3.30
2018-05-31T20:24:28.981Z,3.60
2018-05-31T20:26:54.719Z,3.90
2018-05-31T20:29:20.583Z,3.67
2018-05-31T20:31:46.575Z,3.90
2018-05-31T20:34:12.331Z,3.40
2018-05-31T20:36:38.117Z,3.53
2018-05-31T20:39:04.642Z,3.60
2018-05-31T20:41:30.399Z,4.27
2018-05-31T20:43:56.120Z,3.80
2018-05-31T20:46:21.865Z,3.97
2018-05-31T20:48:47.597Z,3.77
2018-05-31T20:51:13.396Z,3.70
2018-05-31T20:53:39.213Z,3.73
2018-05-31T20:56:04.948Z,3.53
2018-05-31T20:58:30.683Z,3.80
2018-05-31T21:00:56.433Z,3.73
2018-05-31T21:03:22.165Z,3.50
2018-05-31T21:05:47.916Z,3.87
2018-05-31T21:08:13.633Z,3.77
2018-05-31T21:10:39.380Z,3.80
2018-05-31T21:13:05.111Z,3.63
2018-05-31T21:15:30.865Z,3.70
2018-05-31T21:17:56.609Z,3.77
2018-05-31T21:20:22.349Z,3.40
2018-05-31T21:22:48.363Z,3.53
2018-05-31T21:25:14.065Z,3.97
2018-05-31T21:27:39.811Z,3.90
2018-05-31T21:30:05.555Z,4.13
2018-05-31T21:32:31.309Z,4.30
2018-05-31T21:34:57.046Z,3.90
2018-05-31T21:37:22.786Z,3.60
2018-05-31T21:39:48.515Z,3.77
2018-05-31T21:42:14.254Z,4.23
2018-05-31T21:44:39.981Z,3.80
2018-05-31T21:47:05.725Z,4.40
2018-05-31T21:49:31.453Z,3.70
2018-05-31T21:51:57.193Z,3.93
2018-05-31T21:54:23.009Z,3.73
2018-05-31T21:56:48.764Z,4.10
2018-05-31T21:59:14.496Z,3.90
2018-05-31T22:01:40.244Z,3.47
2018-05-31T22:04:05.976Z,3.87
2018-05-31T22:06:31.721Z,3.50
2018-05-31T22:08:57.463Z,3.97
2018-05-31T22:11:23.211Z,4.37
2018-05-31T22:13:49.071Z,4.27
2018-05-31T22:16:14.804Z,3.93
2018-05-31T22:18:40.555Z,3.90
2018-05-31T22:21:06.293Z,4.00
2018-05-31T22:23:32.037Z,3.90
2018-05-31T22:25:57.769Z,3.77
2018-05-31T22:28:23.503Z,4.10
2018-05-31T22:30:49.231Z,4.07
2018-05-31T22:33:14.977Z,4.13
2018-05-31T22:35:40.701Z,4.17
2018-05-31T22:38:06.441Z,4.10
2018-05-31T22:40:32.176Z,4.37
2018-05-31T22:42:57.923Z,4.20
2018-05-31T22:45:23.655Z,4.10
2018-05-31T22:47:49.400Z,3.77
2018-05-31T22:50:15.133Z,4.10
2018-05-31T22:52:40.877Z,3.87
2018-05-31T22:55:06.785Z,3.87
2018-05-31T22:57:32.521Z,4.03
2018-05-31T22:59:58.248Z,3.67
2018-05-31T23:02:23.992Z,4.07
2018-05-31T23:04:49.726Z,3.70
2018-05-31T23:07:15.460Z,3.90
2018-05-31T23:09:41.188Z,3.67
2018-05-31T23:12:06.924Z,4.27
2018-05-31T23:14:32.640Z,4.10
2018-05-31T23:16:59.027Z,4.00
2018-05-31T23:19:24.868Z,4.13
2018-05-31T23:21:50.633Z,3.80
2018-05-31T23:24:16.906Z,3.93
2018-05-31T23:26:42.632Z,3.97
2018-05-31T23:29:08.381Z,3.90
2018-05-31T23:31:34.271Z,3.97
2018-05-31T23:34:00.039Z,3.80
2018-05-31T23:36:25.861Z,4.30
2018-05-31T23:38:52.091Z,4.33
2018-05-31T23:41:18.163Z,4.23
2018-05-31T23:43:44.450Z,4.23
2018-05-31T23:46:10.528Z,4.00
2018-05-31T23:48:36.289Z,3.90
2018-05-31T23:51:02.243Z,4.50
2018-05-31T23:53:28.112Z,4.27
2018-05-31T23:55:53.862Z,4.10
2018-05-31T23:58:19.600Z,4.00
